Time;durP1;ratioP1;P1;durP2;ratioP2;P2;SDS_P1;SDS_P2;PMS_P1;PMS_P2;Temp;Humidity;BMP_temperature;BMP_pressure;BME280_temperature;BME280_humidity;BME280_pressure;Samples;Min_cycle;Max_cycle;Signal;HPM_P1;HPM_P2
2022/10/20 00:00:33;;;;;;;;;;;;;;;;;;5023661;28;19913;-31
2022/10/20 00:02:58;;;;;;;;;;;;;;;;;;5023191;28;20355;-31
2022/10/20 00:05:23;;;;;;;;;;;;;;;;;;5019851;28;20019;-31
2022/10/20 00:07:48;;;;;;;;;;;;;;;;;;5019362;28;20398;-31
2022/10/20 00:10:14;;;;;;;;;;;;;;;;;;5021871;28;19984;-31
2022/10/20 00:12:39;;;;;;;;;;;;;;;;;;5024065;28;19913;-31
2022/10/20 00:15:04;;;;;;;;;;;;;;;;;;5023299;28;19913;-31
2022/10/20 00:17:29;;;;;;;;;;;;;;;;;;5022010;28;19917;-31
2022/10/20 00:19:54;;;;;;;;;;;;;;;;;;5023824;28;20602;-31
2022/10/20 00:22:19;;;;;;;;;;;;;;;;;;5024694;28;20158;-31
2022/10/20 00:24:45;;;;;;;;;;;;;;;;;;5021513;28;19914;-31
2022/10/20 00:27:10;;;;;;;;;;;;;;;;;;5023553;28;20053;-30
2022/10/20 00:29:35;;;;;;;;;;;;;;;;;;5023110;28;19917;-31
2022/10/20 00:32:00;;;;;;;;;;;;;;;;;;5022856;28;20337;-30
2022/10/20 00:34:25;;;;;;;;;;;;;;;;;;5022311;28;19913;-30
2022/10/20 00:36:50;;;;;;;;;;;;;;;;;;5021063;28;19921;-30
2022/10/20 00:39:15;;;;;;;;;;;;;;;;;;5020107;28;19938;-31
2022/10/20 00:41:41;;;;;;;;;;;;;;;;;;5024570;28;20122;-31
2022/10/20 00:44:06;;;;;;;;;;;;;;;;;;5021182;28;20446;-31
2022/10/20 00:46:31;;;;;;;;;;;;;;;;;;5023034;28;19913;-31
2022/10/20 00:48:56;;;;;;;;;;;;;;;;;;5020187;28;19925;-31
2022/10/20 00:51:21;;;;;;;;;;;;;;;;;;5019055;28;19909;-31
2022/10/20 00:53:46;;;;;;;;;;;;;;;;;;5023583;28;20472;-32
2022/10/20 00:56:12;;;;;;;;;;;;;;;;;;5023321;28;19928;-30
2022/10/20 00:58:37;;;;;;;;;;;;;;;;;;5023363;28;20389;-31
2022/10/20 01:01:02;;;;;;;;;;;;;;;;;;5019742;28;19921;-31
2022/10/20 01:03:27;;;;;;;;;;;;;;;;;;5021412;28;20263;-31
2022/10/20 01:05:52;;;;;;;;;;;;;;;;;;5023649;28;20036;-31
2022/10/20 01:08:18;;;;;;;;;;;;;;;;;;5024333;28;19917;-30
2022/10/20 01:10:43;;;;;;;;;;;;;;;;;;5022383;28;19996;-31
2022/10/20 01:13:08;;;;;;;;;;;;;;;;;;5020652;28;19921;-31
2022/10/20 01:15:33;;;;;;;;;;;;;;;;;;5019459;28;19917;-31
2022/10/20 01:17:58;;;;;;;;;;;;;;;;;;5024477;28;19925;-31
2022/10/20 01:20:23;;;;;;;;;;;;;;;;;;5021562;28;19945;-31
2022/10/20 01:22:48;;;;;;;;;;;;;;;;;;5020504;28;19917;-31
2022/10/20 01:25:14;;;;;;;;;;;;;;;;;;5023508;28;20425;-31
2022/10/20 01:27:39;;;;;;;;;;;;;;;;;;5023007;28;19935;-31
2022/10/20 01:30:04;;;;;;;;;;;;;;;;;;5022671;28;20000;-30
2022/10/20 01:32:29;;;;;;;;;;;;;;;;;;5022798;28;20212;-31
2022/10/20 01:34:54;;;;;;;;;;;;;;;;;;5019195;28;20036;-30
2022/10/20 01:37:19;;;;;;;;;;;;;;;;;;5021948;28;19967;-30
2022/10/20 01:39:45;;;;;;;;;;;;;;;;;;5022774;28;19991;-31
2022/10/20 01:42:10;;;;;;;;;;;;;;;;;;5029274;28;19913;-30
2022/10/20 01:44:35;;;;;;;;;;;;;;;;;;5025133;28;19917;-30
2022/10/20 01:47:00;;;;;;;;;;;;;;;;;;5022771;28;19924;-30
2022/10/20 01:49:25;;;;;;;;;;;;;;;;;;5027948;28;20285;-30
2022/10/20 01:51:50;;;;;;;;;;;;;;;;;;5026940;28;20066;-30
2022/10/20 01:54:15;;;;;;;;;;;;;;;;;;5026318;28;19936;-30
2022/10/20 01:56:41;;;;;;;;;;;;;;;;;;5025578;28;19921;-30
2022/10/20 01:59:06;;;;;;;;;;;;;;;;;;5026381;28;20310;-30
2022/10/20 02:01:31;;;;;;;;;;;;;;;;;;5026478;28;19993;-30
2022/10/20 02:03:56;;;;;;;;;;;;;;;;;;5025250;28;20290;-30
2022/10/20 02:06:21;;;;;;;;;;;;;;;;;;5028104;28;19917;-30
2022/10/20 02:08:46;;;;;;;;;;;;;;;;;;5026865;28;19957;-30
2022/10/20 02:11:12;;;;;;;;;;;;;;;;;;5028064;28;19917;-30
2022/10/20 02:13:37;;;;;;;;;;;;;;;;;;5023232;28;20008;-30
2022/10/20 02:16:02;;;;;;;;;;;;;;;;;;5028413;28;19920;-29
2022/10/20 02:18:27;;;;;;;;;;;;;;;;;;5026700;28;19966;-30
2022/10/20 02:20:52;;;;;;;;;;;;;;;;;;5026582;28;19920;-30
2022/10/20 02:23:17;;;;;;;;;;;;;;;;;;5025620;28;20000;-30
2022/10/20 02:25:43;;;;;;;;;;;;;;;;;;5024797;28;19920;-29
2022/10/20 02:28:08;;;;;;;;;;;;;;;;;;5021231;28;20004;-29
2022/10/20 02:30:33;;;;;;;;;;;;;;;;;;5026516;28;19914;-30
2022/10/20 02:32:58;;;;;;;;;;;;;;;;;;5025455;28;19921;-29
2022/10/20 02:35:23;;;;;;;;;;;;;;;;;;5027122;28;20320;-30
2022/10/20 02:37:48;;;;;;;;;;;;;;;;;;5024487;28;19917;-30
2022/10/20 02:40:14;;;;;;;;;;;;;;;;;;5021611;28;19924;-30
2022/10/20 02:42:42;;;;;;;;;;;;;;;;;;5024061;28;19987;-30
2022/10/20 02:45:07;;;;;;;;;;;;;;;;;;5026484;28;19920;-30
2022/10/20 02:47:33;;;;;;;;;;;;;;;;;;5025539;28;19920;-30
2022/10/20 02:49:58;;;;;;;;;;;;;;;;;;5022821;28;20015;-30
2022/10/20 02:52:23;;;;;;;;;;;;;;;;;;5025039;28;19913;-30
2022/10/20 02:54:48;;;;;;;;;;;;;;;;;;5024921;28;19983;-29
2022/10/20 02:57:13;;;;;;;;;;;;;;;;;;5022375;28;20141;-29
2022/10/20 02:59:38;;;;;;;;;;;;;;;;;;5024823;28;20358;-30
2022/10/20 03:02:03;;;;;;;;;;;;;;;;;;5022493;28;19913;-30
2022/10/20 03:04:29;;;;;;;;;;;;;;;;;;5023123;28;20554;-30
2022/10/20 03:06:54;;;;;;;;;;;;;;;;;;5024293;28;19921;-30
2022/10/20 03:09:19;;;;;;;;;;;;;;;;;;5025884;28;20386;-30
2022/10/20 03:11:44;;;;;;;;;;;;;;;;;;5025053;28;19926;-29
2022/10/20 03:14:09;;;;;;;;;;;;;;;;;;5025177;28;19974;-29
2022/10/20 03:16:34;;;;;;;;;;;;;;;;;;5025052;28;20406;-29
2022/10/20 03:18:59;;;;;;;;;;;;;;;;;;5024440;28;19924;-30
2022/10/20 03:21:25;;;;;;;;;;;;;;;;;;5025597;28;19913;-30
2022/10/20 03:23:50;;;;;;;;;;;;;;;;;;5022662;28;19917;-30
2022/10/20 03:26:15;;;;;;;;;;;;;;;;;;5016636;28;19917;-30
2022/10/20 03:28:40;;;;;;;;;;;;;;;;;;5024347;28;19970;-30
2022/10/20 03:31:05;;;;;;;;;;;;;;;;;;5024973;28;19916;-29
2022/10/20 03:33:30;;;;;;;;;;;;;;;;;;5024422;28;19916;-30
2022/10/20 03:35:56;;;;;;;;;;;;;;;;;;5021906;28;20533;-29
2022/10/20 03:38:21;;;;;;;;;;;;;;;;;;5024138;28;19921;-30
2022/10/20 03:40:46;;;;;;;;;;;;;;;;;;5023547;28;19989;-30
2022/10/20 03:43:14;;;;;;;;;;;;;;;;;;5027358;28;19917;-29
2022/10/20 03:45:39;;;;;;;;;;;;;;;;;;5023905;28;20294;-30
2022/10/20 03:48:04;;;;;;;;;;;;;;;;;;5023407;28;19917;-29
2022/10/20 03:50:29;;;;;;;;;;;;;;;;;;5020065;28;19914;-30
2022/10/20 03:52:54;;;;;;;;;;;;;;;;;;5021682;28;19913;-30
2022/10/20 03:55:19;;;;;;;;;;;;;;;;;;5021748;28;19967;-30
2022/10/20 03:57:45;;;;;;;;;;;;;;;;;;5020882;28;20394;-30
2022/10/20 04:00:10;;;;;;;;;;;;;;;;;;5019177;28;19952;-29
2022/10/20 04:02:35;;;;;;;;;;;;;;;;;;5019103;28;20009;-30
2022/10/20 04:05:00;;;;;;;;;;;;;;;;;;5020536;28;19921;-30
2022/10/20 04:07:25;;;;;;;;;;;;;;;;;;5023955;28;19918;-30
2022/10/20 04:09:50;;;;;;;;;;;;;;;;;;5019430;28;19975;-30
2022/10/20 04:12:15;;;;;;;;;;;;;;;;;;5026076;28;19921;-30
2022/10/20 04:14:41;;;;;;;;;;;;;;;;;;5021201;28;20159;-29
2022/10/20 04:17:06;;;;;;;;;;;;;;;;;;5023773;28;20325;-30
2022/10/20 04:19:31;;;;;;;;;;;;;;;;;;5012141;28;19921;-30
2022/10/20 04:21:56;;;;;;;;;;;;;;;;;;5023201;28;19949;-30
2022/10/20 04:24:21;;;;;;;;;;;;;;;;;;5025313;28;20361;-30
2022/10/20 04:26:46;;;;;;;;;;;;;;;;;;5026102;28;19916;-30
2022/10/20 04:29:12;;;;;;;;;;;;;;;;;;5025796;28;20441;-30
2022/10/20 04:31:37;;;;;;;;;;;;;;;;;;5017336;28;19917;-30
2022/10/20 04:34:02;;;;;;;;;;;;;;;;;;5018114;28;19938;-30
2022/10/20 04:36:27;;;;;;;;;;;;;;;;;;5023660;28;20318;-30
2022/10/20 04:38:52;;;;;;;;;;;;;;;;;;5023249;28;20151;-30
2022/10/20 04:41:17;;;;;;;;;;;;;;;;;;5020796;28;19917;-30
2022/10/20 04:43:42;;;;;;;;;;;;;;;;;;5014972;28;20144;-30
2022/10/20 04:46:08;;;;;;;;;;;;;;;;;;5023486;28;19913;-30
2022/10/20 04:48:33;;;;;;;;;;;;;;;;;;5024923;28;20307;-30
2022/10/20 04:50:58;;;;;;;;;;;;;;;;;;5024546;28;19923;-30
2022/10/20 04:53:23;;;;;;;;;;;;;;;;;;5025134;28;19917;-30
2022/10/20 04:55:48;;;;;;;;;;;;;;;;;;5024850;28;19968;-30
2022/10/20 04:58:13;;;;;;;;;;;;;;;;;;5025262;28;19971;-30
2022/10/20 05:00:38;;;;;;;;;;;;;;;;;;5023137;28;20402;-30
2022/10/20 05:03:04;;;;;;;;;;;;;;;;;;5023884;28;20172;-29
2022/10/20 05:05:29;;;;;;;;;;;;;;;;;;5024786;28;19920;-30
2022/10/20 05:07:54;;;;;;;;;;;;;;;;;;5024050;28;20377;-30
2022/10/20 05:10:19;;;;;;;;;;;;;;;;;;5024403;28;19920;-30
2022/10/20 05:12:44;;;;;;;;;;;;;;;;;;5029377;28;19917;-29
2022/10/20 05:15:09;;;;;;;;;;;;;;;;;;5028623;28;19959;-30
2022/10/20 05:17:35;;;;;;;;;;;;;;;;;;5028202;28;20301;-30
2022/10/20 05:20:00;;;;;;;;;;;;;;;;;;5028243;28;19917;-29
2022/10/20 05:22:25;;;;;;;;;;;;;;;;;;5028403;28;19913;-29
2022/10/20 05:24:50;;;;;;;;;;;;;;;;;;5027391;28;19996;-29
2022/10/20 05:27:15;;;;;;;;;;;;;;;;;;5028057;28;20208;-29
2022/10/20 05:29:40;;;;;;;;;;;;;;;;;;5028091;28;19932;-30
2022/10/20 05:32:05;;;;;;;;;;;;;;;;;;5028293;28;19913;-29
2022/10/20 05:34:31;;;;;;;;;;;;;;;;;;5028052;28;19924;-30
2022/10/20 05:36:56;;;;;;;;;;;;;;;;;;5027548;28;20440;-29
2022/10/20 05:39:21;;;;;;;;;;;;;;;;;;5028425;28;19917;-29
2022/10/20 05:41:46;;;;;;;;;;;;;;;;;;5029472;28;20439;-30
2022/10/20 05:44:11;;;;;;;;;;;;;;;;;;5027327;28;19991;-30
2022/10/20 05:46:39;;;;;;;;;;;;;;;;;;5027404;28;19917;-30
2022/10/20 05:49:05;;;;;;;;;;;;;;;;;;5027989;28;20383;-29
2022/10/20 05:51:31;;;;;;;;;;;;;;;;;;5024707;28;20214;-29
2022/10/20 05:56:33;;;;;;;;;;;;;;;;;;5024720;28;20051;-30
2022/10/20 05:58:58;;;;;;;;;;;;;;;;;;5027426;28;19917;-30
2022/10/20 06:01:23;;;;;;;;;;;;;;;;;;5025113;28;19954;-30
2022/10/20 06:03:49;;;;;;;;;;;;;;;;;;5027056;28;20384;-30
2022/10/20 06:06:14;;;;;;;;;;;;;;;;;;5026835;28;20169;-30
2022/10/20 06:08:39;;;;;;;;;;;;;;;;;;5026751;28;20164;-30
2022/10/20 06:11:04;;;;;;;;;;;;;;;;;;5027162;28;19913;-30
2022/10/20 06:13:29;;;;;;;;;;;;;;;;;;5024217;28;20485;-30
2022/10/20 06:15:54;;;;;;;;;;;;;;;;;;5027251;28;19924;-30
2022/10/20 06:18:20;;;;;;;;;;;;;;;;;;5026906;28;20030;-30
2022/10/20 06:20:45;;;;;;;;;;;;;;;;;;5024665;28;20095;-30
2022/10/20 06:23:10;;;;;;;;;;;;;;;;;;5025807;28;19921;-30
2022/10/20 06:25:35;;;;;;;;;;;;;;;;;;5025681;28;19914;-30
2022/10/20 06:28:00;;;;;;;;;;;;;;;;;;5027480;28;20378;-30
2022/10/20 06:30:26;;;;;;;;;;;;;;;;;;5026342;28;19992;-30
2022/10/20 06:32:51;;;;;;;;;;;;;;;;;;5026650;28;19921;-30
2022/10/20 06:35:16;;;;;;;;;;;;;;;;;;5026715;28;20221;-30
2022/10/20 06:37:41;;;;;;;;;;;;;;;;;;5025772;28;20080;-30
2022/10/20 06:40:06;;;;;;;;;;;;;;;;;;5027153;28;19913;-30
2022/10/20 06:42:31;;;;;;;;;;;;;;;;;;5025745;28;19920;-31
2022/10/20 06:44:58;;;;;;;;;;;;;;;;;;5026343;28;20370;-30
2022/10/20 06:47:23;;;;;;;;;;;;;;;;;;5026216;28;19917;-30
2022/10/20 06:49:48;;;;;;;;;;;;;;;;;;5026172;28;19923;-30
2022/10/20 06:52:13;;;;;;;;;;;;;;;;;;5026308;28;19913;-30
2022/10/20 06:54:38;;;;;;;;;;;;;;;;;;5024723;28;19921;-30
2022/10/20 06:57:03;;;;;;;;;;;;;;;;;;5023710;28;19913;-30
2022/10/20 06:59:28;;;;;;;;;;;;;;;;;;5026370;28;19917;-30
2022/10/20 07:01:54;;;;;;;;;;;;;;;;;;5024568;28;19920;-30
2022/10/20 07:04:19;;;;;;;;;;;;;;;;;;5025740;28;19944;-31
2022/10/20 07:06:44;;;;;;;;;;;;;;;;;;5025496;28;19917;-30
2022/10/20 07:09:10;;;;;;;;;;;;;;;;;;5026444;28;19947;-30
2022/10/20 07:11:35;;;;;;;;;;;;;;;;;;5025103;28;20359;-30
2022/10/20 07:14:00;;;;;;;;;;;;;;;;;;5026357;28;20397;-31
2022/10/20 07:16:25;;;;;;;;;;;;;;;;;;5024090;28;19921;-30
2022/10/20 07:18:50;;;;;;;;;;;;;;;;;;5026053;28;19921;-30
2022/10/20 07:21:16;;;;;;;;;;;;;;;;;;5025993;28;20059;-31
2022/10/20 07:23:41;;;;;;;;;;;;;;;;;;5025074;28;19917;-31
2022/10/20 07:26:06;;;;;;;;;;;;;;;;;;5027053;28;19917;-31
2022/10/20 07:28:31;;;;;;;;;;;;;;;;;;5024689;28;20379;-30
2022/10/20 07:30:58;;;;;;;;;;;;;;;;;;5026270;28;19913;-31
2022/10/20 07:33:23;;;;;;;;;;;;;;;;;;5025439;28;20274;-31
2022/10/20 07:35:49;;;;;;;;;;;;;;;;;;5024632;28;19921;-30
2022/10/20 07:38:14;;;;;;;;;;;;;;;;;;5026117;28;19917;-31
2022/10/20 07:40:39;;;;;;;;;;;;;;;;;;5024909;28;20198;-31
2022/10/20 07:43:04;;;;;;;;;;;;;;;;;;5026074;28;20278;-31
2022/10/20 07:45:29;;;;;;;;;;;;;;;;;;5024787;28;20008;-32
2022/10/20 07:47:54;;;;;;;;;;;;;;;;;;5026354;28;19944;-32
2022/10/20 07:50:19;;;;;;;;;;;;;;;;;;5024769;28;19959;-32
2022/10/20 07:52:45;;;;;;;;;;;;;;;;;;5024913;28;20378;-32
2022/10/20 07:55:10;;;;;;;;;;;;;;;;;;5025486;28;19987;-32
2022/10/20 07:57:35;;;;;;;;;;;;;;;;;;5024349;28;19919;-32
2022/10/20 08:00:00;;;;;;;;;;;;;;;;;;5026289;28;20000;-32
2022/10/20 08:02:25;;;;;;;;;;;;;;;;;;5025197;28;20025;-32
2022/10/20 08:04:50;;;;;;;;;;;;;;;;;;5024752;28;19917;-32
2022/10/20 08:07:16;;;;;;;;;;;;;;;;;;5025222;28;19936;-31
2022/10/20 08:09:41;;;;;;;;;;;;;;;;;;5024505;28;20448;-32
2022/10/20 08:12:06;;;;;;;;;;;;;;;;;;5026094;28;19924;-32
2022/10/20 08:14:32;;;;;;;;;;;;;;;;;;5024077;28;19974;-32
2022/10/20 08:16:57;;;;;;;;;;;;;;;;;;5025633;28;19920;-32
2022/10/20 08:19:23;;;;;;;;;;;;;;;;;;5024546;28;19913;-32
2022/10/20 08:21:48;;;;;;;;;;;;;;;;;;5025219;28;19921;-32
2022/10/20 08:24:13;;;;;;;;;;;;;;;;;;5024897;28;20363;-32
2022/10/20 08:26:38;;;;;;;;;;;;;;;;;;5024084;28;19978;-32
2022/10/20 08:29:03;;;;;;;;;;;;;;;;;;5025979;28;19920;-32
2022/10/20 08:31:28;;;;;;;;;;;;;;;;;;5024557;28;19939;-32
2022/10/20 08:33:54;;;;;;;;;;;;;;;;;;5024914;28;19913;-32
2022/10/20 08:36:19;;;;;;;;;;;;;;;;;;5025042;28;20306;-32
2022/10/20 08:38:44;;;;;;;;;;;;;;;;;;5025009;28;20011;-33
2022/10/20 08:41:09;;;;;;;;;;;;;;;;;;5025200;28;19913;-33
2022/10/20 08:43:34;;;;;;;;;;;;;;;;;;5023574;28;20391;-33
2022/10/20 08:45:59;;;;;;;;;;;;;;;;;;5025813;28;19916;-32
2022/10/20 08:48:24;;;;;;;;;;;;;;;;;;5028384;28;19917;-33
2022/10/20 08:50:50;;;;;;;;;;;;;;;;;;5028420;28;19921;-33
2022/10/20 08:53:15;;;;;;;;;;;;;;;;;;5028033;28;20353;-33
2022/10/20 08:55:40;;;;;;;;;;;;;;;;;;5027835;28;19928;-32
2022/10/20 08:58:05;;;;;;;;;;;;;;;;;;5029913;28;19924;-32
2022/10/20 09:00:31;;;;;;;;;;;;;;;;;;5027732;28;20342;-33
2022/10/20 09:02:56;;;;;;;;;;;;;;;;;;5029639;28;20504;-32
2022/10/20 09:05:21;;;;;;;;;;;;;;;;;;5028860;28;19920;-33
2022/10/20 09:07:50;;;;;;;;;;;;;;;;;;5028916;28;19921;-33
2022/10/20 09:10:15;;;;;;;;;;;;;;;;;;5028846;28;20359;-33
2022/10/20 09:12:40;;;;;;;;;;;;;;;;;;5028291;28;19917;-33
2022/10/20 09:15:05;;;;;;;;;;;;;;;;;;5029328;28;19923;-32
2022/10/20 09:17:30;;;;;;;;;;;;;;;;;;5027318;28;19918;-33
2022/10/20 09:19:56;;;;;;;;;;;;;;;;;;5029063;28;20278;-33
2022/10/20 09:22:21;;;;;;;;;;;;;;;;;;5027474;28;19913;-32
2022/10/20 09:24:46;;;;;;;;;;;;;;;;;;5027436;28;19917;-33
2022/10/20 09:27:11;;;;;;;;;;;;;;;;;;5028357;28;19928;-33
2022/10/20 09:29:36;;;;;;;;;;;;;;;;;;5026871;28;19913;-33
2022/10/20 09:32:01;;;;;;;;;;;;;;;;;;5028956;28;19913;-33
2022/10/20 09:34:27;;;;;;;;;;;;;;;;;;5027175;28;21047;-33
2022/10/20 09:36:52;;;;;;;;;;;;;;;;;;5027604;28;19924;-32
2022/10/20 09:39:17;;;;;;;;;;;;;;;;;;5024808;28;20245;-33
2022/10/20 09:41:42;;;;;;;;;;;;;;;;;;5025311;28;19921;-33
2022/10/20 09:44:07;;;;;;;;;;;;;;;;;;5027297;28;19920;-33
2022/10/20 09:46:32;;;;;;;;;;;;;;;;;;5024691;28;20256;-33
2022/10/20 09:48:57;;;;;;;;;;;;;;;;;;5026047;28;19994;-33
2022/10/20 09:51:23;;;;;;;;;;;;;;;;;;5026050;28;19956;-32
2022/10/20 09:53:48;;;;;;;;;;;;;;;;;;5025377;28;19921;-33
2022/10/20 09:56:13;;;;;;;;;;;;;;;;;;5023968;28;19972;-33
2022/10/20 09:58:38;;;;;;;;;;;;;;;;;;5024471;28;20786;-33
2022/10/20 10:01:03;;;;;;;;;;;;;;;;;;5025285;28;19971;-33
2022/10/20 10:03:28;;;;;;;;;;;;;;;;;;5021139;28;19917;-33
2022/10/20 10:05:54;;;;;;;;;;;;;;;;;;5025809;28;19917;-33
2022/10/20 10:08:19;;;;;;;;;;;;;;;;;;5027094;28;19995;-33
2022/10/20 10:10:44;;;;;;;;;;;;;;;;;;5027655;28;19913;-33
2022/10/20 10:13:09;;;;;;;;;;;;;;;;;;5026103;28;19916;-33
2022/10/20 10:15:34;;;;;;;;;;;;;;;;;;5025935;28;20337;-33
2022/10/20 10:17:59;;;;;;;;;;;;;;;;;;5026070;28;19924;-33
2022/10/20 10:20:24;;;;;;;;;;;;;;;;;;5027590;28;20615;-33
2022/10/20 10:22:50;;;;;;;;;;;;;;;;;;5026571;28;20174;-33
2022/10/20 10:25:15;;;;;;;;;;;;;;;;;;5026851;28;19917;-33
2022/10/20 10:27:40;;;;;;;;;;;;;;;;;;5027371;28;19943;-33
2022/10/20 10:30:05;;;;;;;;;;;;;;;;;;5025705;28;19931;-33
2022/10/20 10:32:30;;;;;;;;;;;;;;;;;;5026898;28;20493;-33
2022/10/20 10:34:55;;;;;;;;;;;;;;;;;;5025455;28;19924;-33
2022/10/20 10:37:21;;;;;;;;;;;;;;;;;;5027471;28;20376;-33
2022/10/20 10:39:46;;;;;;;;;;;;;;;;;;5026661;28;20310;-33
2022/10/20 10:42:11;;;;;;;;;;;;;;;;;;5025926;28;19928;-33
2022/10/20 10:44:36;;;;;;;;;;;;;;;;;;5026643;28;19943;-33
2022/10/20 10:47:01;;;;;;;;;;;;;;;;;;5024284;28;19924;-33
2022/10/20 10:49:27;;;;;;;;;;;;;;;;;;5026973;28;20023;-33
2022/10/20 10:51:52;;;;;;;;;;;;;;;;;;5024326;28;20339;-34
2022/10/20 10:54:17;;;;;;;;;;;;;;;;;;5026286;28;19917;-33
2022/10/20 10:56:42;;;;;;;;;;;;;;;;;;5026657;28;19932;-33
2022/10/20 10:59:07;;;;;;;;;;;;;;;;;;5025376;28;19917;-32
2022/10/20 11:01:32;;;;;;;;;;;;;;;;;;5022186;28;19920;-33
2022/10/20 11:03:58;;;;;;;;;;;;;;;;;;5024020;28;20457;-33
2022/10/20 11:06:23;;;;;;;;;;;;;;;;;;5022928;28;20085;-32
2022/10/20 11:08:48;;;;;;;;;;;;;;;;;;5024424;28;20110;-32
2022/10/20 11:11:13;;;;;;;;;;;;;;;;;;5024578;28;19928;-32
2022/10/20 11:13:38;;;;;;;;;;;;;;;;;;5024901;28;19924;-32
2022/10/20 11:16:03;;;;;;;;;;;;;;;;;;5022445;28;19928;-33
2022/10/20 11:18:29;;;;;;;;;;;;;;;;;;5024115;28;20110;-32
2022/10/20 11:20:54;;;;;;;;;;;;;;;;;;5024281;28;19936;-33
2022/10/20 11:23:19;;;;;;;;;;;;;;;;;;5024115;28;20436;-32
2022/10/20 11:25:44;;;;;;;;;;;;;;;;;;5024950;28;19913;-33
2022/10/20 11:28:09;;;;;;;;;;;;;;;;;;5025222;28;19928;-32
2022/10/20 11:30:34;;;;;;;;;;;;;;;;;;5024207;28;20126;-33
2022/10/20 11:33:00;;;;;;;;;;;;;;;;;;5024625;28;19940;-33
2022/10/20 11:35:25;;;;;;;;;;;;;;;;;;5024168;28;19924;-33
2022/10/20 11:37:50;;;;;;;;;;;;;;;;;;5024591;28;19920;-33
2022/10/20 11:40:15;;;;;;;;;;;;;;;;;;5023686;28;19925;-34
2022/10/20 11:42:40;;;;;;;;;;;;;;;;;;5025019;28;20059;-33
2022/10/20 11:45:05;;;;;;;;;;;;;;;;;;5024238;28;19921;-33
2022/10/20 11:47:30;;;;;;;;;;;;;;;;;;5024856;28;19927;-33
2022/10/20 11:49:56;;;;;;;;;;;;;;;;;;5023993;28;19979;-33
2022/10/20 11:52:21;;;;;;;;;;;;;;;;;;5024274;28;19913;-33
2022/10/20 11:54:46;;;;;;;;;;;;;;;;;;5040411;23;19967;-33
2022/10/20 11:57:11;;;;;;;;;;;;;;;;;;5042396;28;20019;-33
2022/10/20 11:59:36;;;;;;;;;;;;;;;;;;5042370;28;19916;-33
2022/10/20 12:02:02;;;;;;;;;;;;;;;;;;5042555;28;19916;-33
2022/10/20 12:04:27;;;;;;;;;;;;;;;;;;5043357;28;19924;-33
2022/10/20 12:06:52;;;;;;;;;;;;;;;;;;5043748;28;19921;-33
2022/10/20 12:09:18;;;;;;;;;;;;;;;;;;5042444;28;20285;-34
2022/10/20 12:11:43;;;;;;;;;;;;;;;;;;5043121;28;19924;-33
2022/10/20 12:14:09;;;;;;;;;;;;;;;;;;5042722;28;20251;-34
2022/10/20 12:16:34;;;;;;;;;;;;;;;;;;5037213;28;19920;-34
2022/10/20 12:18:59;;;;;;;;;;;;;;;;;;5043076;28;19939;-34
2022/10/20 12:21:24;;;;;;;;;;;;;;;;;;5041996;28;19920;-34
2022/10/20 12:23:52;;;;;;;;;;;;;;;;;;5041569;28;20018;-34
2022/10/20 12:26:17;;;;;;;;;;;;;;;;;;5042705;28;19917;-34
2022/10/20 12:28:42;;;;;;;;;;;;;;;;;;5042694;28;19928;-34
2022/10/20 12:31:07;;;;;;;;;;;;;;;;;;5043026;28;20386;-34
2022/10/20 12:33:32;;;;;;;;;;;;;;;;;;5041853;28;20632;-34
2022/10/20 12:35:57;;;;;;;;;;;;;;;;;;5043376;28;19913;-34
2022/10/20 12:38:26;;;;;;;;;;;;;;;;;;5042777;28;19986;-34
2022/10/20 12:40:51;;;;;;;;;;;;;;;;;;5040525;28;20278;-34
2022/10/20 12:43:16;;;;;;;;;;;;;;;;;;5042445;28;19913;-34
2022/10/20 12:45:43;;;;;;;;;;;;;;;;;;5040483;28;19921;-34
2022/10/20 12:48:08;;;;;;;;;;;;;;;;;;5042999;28;19927;-34
2022/10/20 12:50:33;;;;;;;;;;;;;;;;;;5042139;28;19917;-34
2022/10/20 12:52:58;;;;;;;;;;;;;;;;;;5043035;28;20378;-34
2022/10/20 12:55:23;;;;;;;;;;;;;;;;;;5042285;28;19924;-34
2022/10/20 12:57:48;;;;;;;;;;;;;;;;;;5039159;28;19916;-34
2022/10/20 13:00:14;;;;;;;;;;;;;;;;;;5043858;28;20305;-34
2022/10/20 13:02:39;;;;;;;;;;;;;;;;;;5039441;28;19917;-34
2022/10/20 13:05:04;;;;;;;;;;;;;;;;;;5041491;28;20297;-34
2022/10/20 13:07:29;;;;;;;;;;;;;;;;;;5042123;28;20145;-34
2022/10/20 13:09:54;;;;;;;;;;;;;;;;;;5041974;28;20054;-34
2022/10/20 13:12:19;;;;;;;;;;;;;;;;;;5042872;28;20384;-34
2022/10/20 13:14:44;;;;;;;;;;;;;;;;;;5037192;28;20047;-34
2022/10/20 13:17:10;;;;;;;;;;;;;;;;;;5041512;28;19913;-34
2022/10/20 13:19:35;;;;;;;;;;;;;;;;;;5039653;28;19920;-34
2022/10/20 13:22:00;;;;;;;;;;;;;;;;;;5042351;28;19920;-34
2022/10/20 13:24:26;;;;;;;;;;;;;;;;;;5041689;28;20000;-34
2022/10/20 13:26:53;;;;;;;;;;;;;;;;;;5041465;28;19921;-34
2022/10/20 13:29:18;;;;;;;;;;;;;;;;;;5042317;28;19924;-34
2022/10/20 13:31:43;;;;;;;;;;;;;;;;;;5041376;28;19917;-34
2022/10/20 13:34:08;;;;;;;;;;;;;;;;;;5045055;28;20426;-33
2022/10/20 13:36:33;;;;;;;;;;;;;;;;;;5045338;28;19916;-34
2022/10/20 13:38:58;;;;;;;;;;;;;;;;;;5045794;28;19939;-34
2022/10/20 13:41:24;;;;;;;;;;;;;;;;;;5045712;28;19963;-34
2022/10/20 13:43:50;;;;;;;;;;;;;;;;;;5044608;28;19924;-34
2022/10/20 13:46:15;;;;;;;;;;;;;;;;;;5045421;28;19916;-34
2022/10/20 13:48:40;;;;;;;;;;;;;;;;;;5045033;28;20129;-34
2022/10/20 13:51:06;;;;;;;;;;;;;;;;;;5046448;28;19913;-34
2022/10/20 13:53:31;;;;;;;;;;;;;;;;;;5040027;28;19913;-34
2022/10/20 13:55:56;;;;;;;;;;;;;;;;;;5044606;28;19920;-33
2022/10/20 13:58:21;;;;;;;;;;;;;;;;;;5044651;28;20355;-34
2022/10/20 14:00:46;;;;;;;;;;;;;;;;;;5044343;28;19916;-34
2022/10/20 14:03:11;;;;;;;;;;;;;;;;;;5044614;28;19918;-34
2022/10/20 14:05:37;;;;;;;;;;;;;;;;;;5045604;28;20035;-34
2022/10/20 14:08:02;;;;;;;;;;;;;;;;;;5045867;28;19917;-34
2022/10/20 14:10:27;;;;;;;;;;;;;;;;;;5044938;28;20051;-34
2022/10/20 14:12:52;;;;;;;;;;;;;;;;;;5045875;28;19920;-34
2022/10/20 14:15:17;;;;;;;;;;;;;;;;;;5041887;28;19927;-34
2022/10/20 14:17:42;;;;;;;;;;;;;;;;;;5045639;28;19948;-34
2022/10/20 14:20:08;;;;;;;;;;;;;;;;;;5044688;28;19950;-34
2022/10/20 14:22:33;;;;;;;;;;;;;;;;;;5044931;28;19924;-34
2022/10/20 14:24:58;;;;;;;;;;;;;;;;;;5045592;28;20469;-34
2022/10/20 14:27:23;;;;;;;;;;;;;;;;;;5044442;28;20396;-34
2022/10/20 14:29:49;;;;;;;;;;;;;;;;;;5045243;28;19916;-34
2022/10/20 14:32:14;;;;;;;;;;;;;;;;;;5044117;28;19912;-34
2022/10/20 14:34:39;;;;;;;;;;;;;;;;;;5044657;28;19917;-34
2022/10/20 14:37:04;;;;;;;;;;;;;;;;;;5045865;28;19921;-34
2022/10/20 14:39:29;;;;;;;;;;;;;;;;;;5044354;28;19917;-34
2022/10/20 14:41:54;;;;;;;;;;;;;;;;;;5044759;28;20386;-34
2022/10/20 14:44:20;;;;;;;;;;;;;;;;;;5043357;28;19920;-34
2022/10/20 14:46:45;;;;;;;;;;;;;;;;;;5045788;28;19917;-34
2022/10/20 14:49:10;;;;;;;;;;;;;;;;;;5043834;28;20313;-34
2022/10/20 14:51:36;;;;;;;;;;;;;;;;;;5045087;28;19939;-34
2022/10/20 14:54:01;;;;;;;;;;;;;;;;;;5045024;28;19920;-34
2022/10/20 14:56:26;;;;;;;;;;;;;;;;;;5043430;28;19928;-33
2022/10/20 14:58:51;;;;;;;;;;;;;;;;;;5044618;28;19943;-33
2022/10/20 15:01:16;;;;;;;;;;;;;;;;;;5041977;28;19967;-34
2022/10/20 15:03:43;;;;;;;;;;;;;;;;;;5044217;28;19955;-34
2022/10/20 15:06:08;;;;;;;;;;;;;;;;;;5044085;28;19913;-33
2022/10/20 15:08:33;;;;;;;;;;;;;;;;;;5044466;28;19932;-33
2022/10/20 15:10:58;;;;;;;;;;;;;;;;;;5044859;28;20195;-33
2022/10/20 15:13:23;;;;;;;;;;;;;;;;;;5042435;28;19951;-33
2022/10/20 15:15:49;;;;;;;;;;;;;;;;;;5042458;28;20016;-33
2022/10/20 15:18:14;;;;;;;;;;;;;;;;;;5043623;28;20310;-33
2022/10/20 15:20:39;;;;;;;;;;;;;;;;;;5044078;28;20367;-33
2022/10/20 15:23:04;;;;;;;;;;;;;;;;;;5044195;28;20076;-33
2022/10/20 15:25:29;;;;;;;;;;;;;;;;;;5043778;28;19932;-33
2022/10/20 15:27:55;;;;;;;;;;;;;;;;;;5044133;28;20250;-33
2022/10/20 15:30:20;;;;;;;;;;;;;;;;;;5043021;28;20387;-33
2022/10/20 15:32:45;;;;;;;;;;;;;;;;;;5044228;28;19920;-33
2022/10/20 15:35:10;;;;;;;;;;;;;;;;;;5043139;28;19913;-33
2022/10/20 15:37:35;;;;;;;;;;;;;;;;;;5044041;28;19917;-33
2022/10/20 15:40:00;;;;;;;;;;;;;;;;;;5044286;28;20366;-33
2022/10/20 15:42:25;;;;;;;;;;;;;;;;;;5042924;28;20008;-33
2022/10/20 15:44:51;;;;;;;;;;;;;;;;;;5043688;28;20059;-32
2022/10/20 15:47:16;;;;;;;;;;;;;;;;;;5042848;28;20429;-32
2022/10/20 15:49:41;;;;;;;;;;;;;;;;;;5043098;28;19913;-32
2022/10/20 15:52:07;;;;;;;;;;;;;;;;;;5043110;28;19916;-32
2022/10/20 15:54:32;;;;;;;;;;;;;;;;;;5042298;28;19971;-32
2022/10/20 15:56:57;;;;;;;;;;;;;;;;;;5043087;28;19924;-32
2022/10/20 15:59:23;;;;;;;;;;;;;;;;;;5042399;28;19916;-32
2022/10/20 16:01:48;;;;;;;;;;;;;;;;;;5043506;28;19999;-32
2022/10/20 16:04:13;;;;;;;;;;;;;;;;;;5042177;28;19943;-33
2022/10/20 16:06:38;;;;;;;;;;;;;;;;;;5044046;28;19919;-33
2022/10/20 16:09:03;;;;;;;;;;;;;;;;;;5043028;28;20437;-33
2022/10/20 16:11:28;;;;;;;;;;;;;;;;;;5042139;28;20044;-33
2022/10/20 16:13:54;;;;;;;;;;;;;;;;;;5043164;28;19963;-33
2022/10/20 16:16:19;;;;;;;;;;;;;;;;;;5040670;28;20274;-33
2022/10/20 16:18:44;;;;;;;;;;;;;;;;;;5043778;28;19956;-33
2022/10/20 16:21:09;;;;;;;;;;;;;;;;;;5042589;28;19912;-33
2022/10/20 16:23:35;;;;;;;;;;;;;;;;;;5042488;28;20003;-33
2022/10/20 16:26:00;;;;;;;;;;;;;;;;;;5043589;28;19917;-33
2022/10/20 16:28:25;;;;;;;;;;;;;;;;;;5041926;28;19924;-33
2022/10/20 16:30:50;;;;;;;;;;;;;;;;;;5042976;28;19923;-33
2022/10/20 16:33:16;;;;;;;;;;;;;;;;;;5041226;28;20313;-33